sensor_id;sensor_type;location;lat;lon;timestamp;pressure;altitude;pressure_sealevel;temperature;humidity
64853;BME280;56050;55.558;-4.644;2023-05-27T00:00:12;103092.56;;;14.56;63.33
64853;BME280;56050;55.558;-4.644;2023-05-27T00:02:38;103100.25;;;14.54;63.43
64853;BME280;56050;55.558;-4.644;2023-05-27T00:05:04;103098.69;;;14.53;63.31
64853;BME280;56050;55.558;-4.644;2023-05-27T00:07:30;103089.00;;;14.52;63.23
64853;BME280;56050;55.558;-4.644;2023-05-27T00:09:56;103095.91;;;14.49;63.41
64853;BME280;56050;55.558;-4.644;2023-05-27T00:12:22;103096.16;;;14.44;63.27
64853;BME280;56050;55.558;-4.644;2023-05-27T00:14:47;103092.19;;;14.38;63.31
64853;BME280;56050;55.558;-4.644;2023-05-27T00:17:13;103098.22;;;14.32;63.39
64853;BME280;56050;55.558;-4.644;2023-05-27T00:19:39;103094.19;;;14.26;63.49
64853;BME280;56050;55.558;-4.644;2023-05-27T00:22:05;103086.00;;;14.22;63.58
64853;BME280;56050;55.558;-4.644;2023-05-27T00:24:31;103089.41;;;14.19;63.62
64853;BME280;56050;55.558;-4.644;2023-05-27T00:26:56;103088.19;;;14.17;63.52
64853;BME280;56050;55.558;-4.644;2023-05-27T00:29:21;103081.50;;;14.14;63.51
64853;BME280;56050;55.558;-4.644;2023-05-27T00:31:47;103089.22;;;14.12;63.54
64853;BME280;56050;55.558;-4.644;2023-05-27T00:34:12;103092.28;;;14.10;63.72
64853;BME280;56050;55.558;-4.644;2023-05-27T00:36:38;103091.50;;;14.10;63.54
64853;BME280;56050;55.558;-4.644;2023-05-27T00:39:03;103086.16;;;14.13;63.58
64853;BME280;56050;55.558;-4.644;2023-05-27T00:41:31;103072.25;;;14.15;63.50
64853;BME280;56050;55.558;-4.644;2023-05-27T00:43:56;103075.75;;;14.16;63.35
64853;BME280;56050;55.558;-4.644;2023-05-27T00:46:22;103076.19;;;14.18;63.42
64853;BME280;56050;55.558;-4.644;2023-05-27T00:48:48;103068.84;;;14.18;63.25
64853;BME280;56050;55.558;-4.644;2023-05-27T00:51:14;103070.75;;;14.18;63.14
64853;BME280;56050;55.558;-4.644;2023-05-27T00:53:41;103076.97;;;14.18;63.28
64853;BME280;56050;55.558;-4.644;2023-05-27T00:56:10;103070.75;;;14.18;63.16
64853;BME280;56050;55.558;-4.644;2023-05-27T00:58:36;103072.63;;;14.13;63.01
64853;BME280;56050;55.558;-4.644;2023-05-27T01:01:03;103061.31;;;14.11;63.11
64853;BME280;56050;55.558;-4.644;2023-05-27T01:03:29;103057.75;;;14.07;62.94
64853;BME280;56050;55.558;-4.644;2023-05-27T01:06:07;103061.09;;;14.01;63.11
64853;BME280;56050;55.558;-4.644;2023-05-27T01:09:03;103047.00;;;13.95;63.39
64853;BME280;56050;55.558;-4.644;2023-05-27T01:11:38;103048.88;;;13.91;63.27
64853;BME280;56050;55.558;-4.644;2023-05-27T01:14:10;103046.88;;;13.88;63.18
64853;BME280;56050;55.558;-4.644;2023-05-27T01:16:38;103042.16;;;13.85;63.41
64853;BME280;56050;55.558;-4.644;2023-05-27T01:19:13;103039.00;;;13.83;63.30
64853;BME280;56050;55.558;-4.644;2023-05-27T01:21:40;103043.97;;;13.81;63.26
64853;BME280;56050;55.558;-4.644;2023-05-27T01:24:10;103041.63;;;13.80;63.29
64853;BME280;56050;55.558;-4.644;2023-05-27T01:26:36;103031.13;;;13.78;63.36
64853;BME280;56050;55.558;-4.644;2023-05-27T01:29:02;103038.81;;;13.76;63.21
64853;BME280;56050;55.558;-4.644;2023-05-27T01:31:42;103035.69;;;13.74;63.30
64853;BME280;56050;55.558;-4.644;2023-05-27T01:34:15;103036.47;;;13.75;63.13
64853;BME280;56050;55.558;-4.644;2023-05-27T01:36:51;103031.75;;;13.72;63.29
64853;BME280;56050;55.558;-4.644;2023-05-27T01:39:20;103031.66;;;13.68;63.11
64853;BME280;56050;55.558;-4.644;2023-05-27T01:41:47;103019.88;;;13.61;63.12
64853;BME280;56050;55.558;-4.644;2023-05-27T01:44:15;103025.47;;;13.52;62.92
64853;BME280;56050;55.558;-4.644;2023-05-27T01:46:42;103015.59;;;13.44;63.09
64853;BME280;56050;55.558;-4.644;2023-05-27T01:49:09;103018.47;;;13.35;63.18
64853;BME280;56050;55.558;-4.644;2023-05-27T01:51:34;103024.50;;;13.29;63.12
64853;BME280;56050;55.558;-4.644;2023-05-27T01:53:59;103013.94;;;13.24;63.23
64853;BME280;56050;55.558;-4.644;2023-05-27T01:56:25;103017.31;;;13.21;63.49
64853;BME280;56050;55.558;-4.644;2023-05-27T01:58:51;103014.88;;;13.16;63.32
64853;BME280;56050;55.558;-4.644;2023-05-27T02:01:17;103021.69;;;13.10;63.25
64853;BME280;56050;55.558;-4.644;2023-05-27T02:03:42;103013.69;;;13.01;63.29
64853;BME280;56050;55.558;-4.644;2023-05-27T02:06:07;103017.00;;;12.94;63.28
64853;BME280;56050;55.558;-4.644;2023-05-27T02:08:34;103007.13;;;12.86;63.57
64853;BME280;56050;55.558;-4.644;2023-05-27T02:10:59;103003.09;;;12.80;63.51
64853;BME280;56050;55.558;-4.644;2023-05-27T02:13:25;103000.97;;;12.74;63.35
64853;BME280;56050;55.558;-4.644;2023-05-27T02:15:50;102998.88;;;12.67;63.72
64853;BME280;56050;55.558;-4.644;2023-05-27T02:18:17;102991.34;;;12.61;63.82
64853;BME280;56050;55.558;-4.644;2023-05-27T02:20:42;102983.13;;;12.57;63.88
64853;BME280;56050;55.558;-4.644;2023-05-27T02:23:08;102980.66;;;12.52;63.89
64853;BME280;56050;55.558;-4.644;2023-05-27T02:25:33;102979.81;;;12.48;63.69
64853;BME280;56050;55.558;-4.644;2023-05-27T02:27:59;102974.28;;;12.45;63.91
64853;BME280;56050;55.558;-4.644;2023-05-27T02:30:29;102968.78;;;12.41;63.92
64853;BME280;56050;55.558;-4.644;2023-05-27T02:32:55;102968.78;;;12.41;63.96
64853;BME280;56050;55.558;-4.644;2023-05-27T02:35:21;102968.78;;;12.41;63.96
64853;BME280;56050;55.558;-4.644;2023-05-27T02:37:46;102955.25;;;12.41;63.95
64853;BME280;56050;55.558;-4.644;2023-05-27T02:40:12;102959.88;;;12.41;63.86
64853;BME280;56050;55.558;-4.644;2023-05-27T02:42:37;102966.44;;;12.40;64.05
64853;BME280;56050;55.558;-4.644;2023-05-27T02:45:03;102957.53;;;12.39;63.85
64853;BME280;56050;55.558;-4.644;2023-05-27T02:47:29;102947.84;;;12.38;63.90
64853;BME280;56050;55.558;-4.644;2023-05-27T02:49:54;102952.81;;;12.36;63.86
64853;BME280;56050;55.558;-4.644;2023-05-27T02:52:19;102950.44;;;12.34;63.86
64853;BME280;56050;55.558;-4.644;2023-05-27T02:54:45;102948.06;;;12.33;63.95
64853;BME280;56050;55.558;-4.644;2023-05-27T02:57:10;102944.16;;;12.30;63.89
64853;BME280;56050;55.558;-4.644;2023-05-27T02:59:36;102950.25;;;12.27;63.70
64853;BME280;56050;55.558;-4.644;2023-05-27T03:02:01;102939.31;;;12.24;63.85
64853;BME280;56050;55.558;-4.644;2023-05-27T03:04:26;102934.16;;;12.19;63.86
64853;BME280;56050;55.558;-4.644;2023-05-27T03:06:52;102936.31;;;12.13;64.09
64853;BME280;56050;55.558;-4.644;2023-05-27T03:09:17;102936.22;;;12.10;64.27
64853;BME280;56050;55.558;-4.644;2023-05-27T03:11:43;102934.53;;;12.05;64.28
64853;BME280;56050;55.558;-4.644;2023-05-27T03:14:08;102927.91;;;12.03;64.04
64853;BME280;56050;55.558;-4.644;2023-05-27T03:16:34;102921.97;;;11.97;64.10
64853;BME280;56050;55.558;-4.644;2023-05-27T03:18:59;102921.41;;;11.92;64.15
64853;BME280;56050;55.558;-4.644;2023-05-27T03:21:26;102924.34;;;11.87;64.36
64853;BME280;56050;55.558;-4.644;2023-05-27T03:23:51;102920.41;;;11.84;64.59
64853;BME280;56050;55.558;-4.644;2023-05-27T03:26:17;102909.50;;;11.81;64.45
64853;BME280;56050;55.558;-4.644;2023-05-27T03:28:42;102907.91;;;11.79;64.67
64853;BME280;56050;55.558;-4.644;2023-05-27T03:31:08;102901.28;;;11.77;64.64
64853;BME280;56050;55.558;-4.644;2023-05-27T03:33:33;102892.75;;;11.75;64.62
64853;BME280;56050;55.558;-4.644;2023-05-27T03:35:59;102898.50;;;11.73;64.71
64853;BME280;56050;55.558;-4.644;2023-05-27T03:38:24;102894.22;;;11.72;64.70
64853;BME280;56050;55.558;-4.644;2023-05-27T03:40:50;102891.06;;;11.70;64.77
64853;BME280;56050;55.558;-4.644;2023-05-27T03:43:15;102887.88;;;11.68;64.64
64853;BME280;56050;55.558;-4.644;2023-05-27T03:45:41;102881.59;;;11.64;64.72
64853;BME280;56050;55.558;-4.644;2023-05-27T03:48:06;102874.63;;;11.63;64.95
64853;BME280;56050;55.558;-4.644;2023-05-27T03:50:33;102871.47;;;11.61;64.89
64853;BME280;56050;55.558;-4.644;2023-05-27T03:52:59;102871.81;;;11.60;65.08
64853;BME280;56050;55.558;-4.644;2023-05-27T03:55:25;102864.06;;;11.58;65.06
64853;BME280;56050;55.558;-4.644;2023-05-27T03:57:50;102864.06;;;11.58;65.13
64853;BME280;56050;55.558;-4.644;2023-05-27T04:00:16;102860.56;;;11.58;65.03
64853;BME280;56050;55.558;-4.644;2023-05-27T04:02:42;102865.19;;;11.57;65.15
64853;BME280;56050;55.558;-4.644;2023-05-27T04:05:08;102866.31;;;11.56;65.20
64853;BME280;56050;55.558;-4.644;2023-05-27T04:07:33;102861.72;;;11.57;65.24
64853;BME280;56050;55.558;-4.644;2023-05-27T04:09:59;102860.56;;;11.58;65.31
64853;BME280;56050;55.558;-4.644;2023-05-27T04:12:24;102868.00;;;11.61;65.17
64853;BME280;56050;55.558;-4.644;2023-05-27T04:14:50;102866.53;;;11.63;65.20
64853;BME280;56050;55.558;-4.644;2023-05-27T04:17:16;102860.44;;;11.66;65.08
64853;BME280;56050;55.558;-4.644;2023-05-27T04:19:42;102868.22;;;11.68;65.20
64853;BME280;56050;55.558;-4.644;2023-05-27T04:22:08;102860.88;;;11.68;65.14
64853;BME280;56050;55.558;-4.644;2023-05-27T04:24:33;102864.06;;;11.70;65.09
64853;BME280;56050;55.558;-4.644;2023-05-27T04:26:59;102858.75;;;11.74;65.02
64853;BME280;56050;55.558;-4.644;2023-05-27T04:29:24;102860.00;;;11.76;65.02
64853;BME280;56050;55.558;-4.644;2023-05-27T04:31:50;102859.31;;;11.79;65.02
64853;BME280;56050;55.558;-4.644;2023-05-27T04:34:16;102854.81;;;11.84;65.01
64853;BME280;56050;55.558;-4.644;2023-05-27T04:36:42;102854.56;;;11.89;64.95
64853;BME280;56050;55.558;-4.644;2023-05-27T04:39:07;102859.28;;;11.92;65.05
64853;BME280;56050;55.558;-4.644;2023-05-27T04:41:33;102860.88;;;11.93;64.94
64853;BME280;56050;55.558;-4.644;2023-05-27T04:43:59;102854.78;;;11.96;64.86
64853;BME280;56050;55.558;-4.644;2023-05-27T04:46:26;102864.88;;;11.99;64.98
64853;BME280;56050;55.558;-4.644;2023-05-27T04:48:52;102853.75;;;12.00;64.80
64853;BME280;56050;55.558;-4.644;2023-05-27T04:51:18;102856.09;;;12.02;64.78
64853;BME280;56050;55.558;-4.644;2023-05-27T04:53:45;102855.41;;;12.05;64.72
64853;BME280;56050;55.558;-4.644;2023-05-27T04:56:10;102859.00;;;12.09;64.87
64853;BME280;56050;55.558;-4.644;2023-05-27T04:58:39;102853.25;;;12.10;64.82
64853;BME280;56050;55.558;-4.644;2023-05-27T05:01:04;102851.44;;;12.14;64.99
64853;BME280;56050;55.558;-4.644;2023-05-27T05:03:30;102856.91;;;12.18;64.94
64853;BME280;56050;55.558;-4.644;2023-05-27T05:06:04;102851.28;;;12.23;64.85
64853;BME280;56050;55.558;-4.644;2023-05-27T05:08:30;102854.53;;;12.28;64.89
64853;BME280;56050;55.558;-4.644;2023-05-27T05:10:56;102847.38;;;12.36;64.80
64853;BME280;56050;55.558;-4.644;2023-05-27T05:13:22;102844.84;;;12.43;64.87
64853;BME280;56050;55.558;-4.644;2023-05-27T05:15:47;102847.34;;;12.48;64.70
64853;BME280;56050;55.558;-4.644;2023-05-27T05:18:13;102850.09;;;12.52;64.69
64853;BME280;56050;55.558;-4.644;2023-05-27T05:20:39;102850.63;;;12.57;64.89
64853;BME280;56050;55.558;-4.644;2023-05-27T05:23:06;102859.28;;;12.63;64.57
64853;BME280;56050;55.558;-4.644;2023-05-27T05:25:32;102861.72;;;12.68;64.72
64853;BME280;56050;55.558;-4.644;2023-05-27T05:28:03;102855.28;;;12.72;64.75
64853;BME280;56050;55.558;-4.644;2023-05-27T05:30:29;102864.72;;;12.78;64.63
64853;BME280;56050;55.558;-4.644;2023-05-27T05:32:55;102857.97;;;12.88;64.56
64853;BME280;56050;55.558;-4.644;2023-05-27T05:35:20;102850.81;;;12.95;64.45
64853;BME280;56050;55.558;-4.644;2023-05-27T05:37:46;102853.72;;;13.03;64.51
64853;BME280;56050;55.558;-4.644;2023-05-27T05:40:11;102853.09;;;13.09;64.59
64853;BME280;56050;55.558;-4.644;2023-05-27T05:42:37;102860.63;;;13.16;64.36
64853;BME280;56050;55.558;-4.644;2023-05-27T05:45:03;102853.81;;;13.22;64.37
64853;BME280;56050;55.558;-4.644;2023-05-27T05:47:29;102853.53;;;13.27;64.38
64853;BME280;56050;55.558;-4.644;2023-05-27T05:49:54;102856.66;;;13.29;64.22
64853;BME280;56050;55.558;-4.644;2023-05-27T05:52:19;102849.75;;;13.31;64.20
64853;BME280;56050;55.558;-4.644;2023-05-27T05:54:45;102851.44;;;13.36;64.36
64853;BME280;56050;55.558;-4.644;2023-05-27T05:57:10;102848.44;;;13.41;64.44
64853;BME280;56050;55.558;-4.644;2023-05-27T05:59:36;102847.03;;;13.47;64.15
64853;BME280;56050;55.558;-4.644;2023-05-27T06:02:01;102843.66;;;13.53;64.20
64853;BME280;56050;55.558;-4.644;2023-05-27T06:04:26;102846.56;;;13.61;64.25
64853;BME280;56050;55.558;-4.644;2023-05-27T06:06:52;102839.78;;;13.70;64.36
64853;BME280;56050;55.558;-4.644;2023-05-27T06:09:17;102837.00;;;13.86;64.25
64853;BME280;56050;55.558;-4.644;2023-05-27T06:11:43;102834.22;;;14.01;64.22
64853;BME280;56050;55.558;-4.644;2023-05-27T06:14:08;102833.72;;;14.15;64.18
64853;BME280;56050;55.558;-4.644;2023-05-27T06:16:34;102835.09;;;14.28;63.93
64853;BME280;56050;55.558;-4.644;2023-05-27T06:19:04;102836.97;;;14.43;64.08
64853;BME280;56050;55.558;-4.644;2023-05-27T06:21:30;102824.00;;;14.56;63.78
64853;BME280;56050;55.558;-4.644;2023-05-27T06:23:57;102835.88;;;14.70;64.05
64853;BME280;56050;55.558;-4.644;2023-05-27T06:26:22;102836.47;;;14.83;63.65
64853;BME280;56050;55.558;-4.644;2023-05-27T06:28:48;102833.56;;;14.95;63.79
64853;BME280;56050;55.558;-4.644;2023-05-27T06:31:13;102832.94;;;15.05;63.64
64853;BME280;56050;55.558;-4.644;2023-05-27T06:33:41;102827.63;;;15.12;63.77
64853;BME280;56050;55.558;-4.644;2023-05-27T06:36:06;102824.28;;;15.22;63.73
64853;BME280;56050;55.558;-4.644;2023-05-27T06:38:32;102834.09;;;15.30;63.67
64853;BME280;56050;55.558;-4.644;2023-05-27T06:40:57;102824.47;;;15.37;63.44
64853;BME280;56050;55.558;-4.644;2023-05-27T06:43:23;102826.16;;;15.45;63.51
64853;BME280;56050;55.558;-4.644;2023-05-27T06:45:48;102821.19;;;15.50;63.35
64853;BME280;56050;55.558;-4.644;2023-05-27T06:48:13;102806.50;;;15.55;63.44
64853;BME280;56050;55.558;-4.644;2023-05-27T06:50:39;102803.84;;;15.58;63.54
64853;BME280;56050;55.558;-4.644;2023-05-27T06:53:04;102802.69;;;15.59;63.72
64853;BME280;56050;55.558;-4.644;2023-05-27T06:55:30;102794.16;;;15.61;63.77
64853;BME280;56050;55.558;-4.644;2023-05-27T06:57:55;102797.72;;;15.65;63.42
64853;BME280;56050;55.558;-4.644;2023-05-27T07:00:21;102800.91;;;15.70;63.63
64853;BME280;56050;55.558;-4.644;2023-05-27T07:02:46;102784.63;;;15.74;63.55
64853;BME280;56050;55.558;-4.644;2023-05-27T07:05:11;102789.75;;;15.79;63.62
64853;BME280;56050;55.558;-4.644;2023-05-27T07:07:37;102782.00;;;15.81;63.36
64853;BME280;56050;55.558;-4.644;2023-05-27T07:10:02;102785.09;;;15.83;63.38
64853;BME280;56050;55.558;-4.644;2023-05-27T07:12:28;102785.94;;;15.87;63.71
64853;BME280;56050;55.558;-4.644;2023-05-27T07:14:53;102780.56;;;15.91;63.57
64853;BME280;56050;55.558;-4.644;2023-05-27T07:17:19;102790.25;;;15.92;63.36
64853;BME280;56050;55.558;-4.644;2023-05-27T07:19:44;102787.94;;;15.94;63.60
64853;BME280;56050;55.558;-4.644;2023-05-27T07:22:10;102782.94;;;15.96;63.74
64853;BME280;56050;55.558;-4.644;2023-05-27T07:24:35;102778.69;;;15.98;63.77
64853;BME280;56050;55.558;-4.644;2023-05-27T07:27:00;102776.78;;;16.02;63.79
64853;BME280;56050;55.558;-4.644;2023-05-27T07:29:26;102775.31;;;16.12;64.08
64853;BME280;56050;55.558;-4.644;2023-05-27T07:31:52;102777.41;;;16.25;63.62
64853;BME280;56050;55.558;-4.644;2023-05-27T07:34:17;102770.16;;;16.40;63.70
64853;BME280;56050;55.558;-4.644;2023-05-27T07:36:43;102773.34;;;16.53;63.68
64853;BME280;56050;55.558;-4.644;2023-05-27T07:39:08;102774.28;;;16.67;63.47
64853;BME280;56050;55.558;-4.644;2023-05-27T07:41:34;102776.28;;;16.77;63.50
64853;BME280;56050;55.558;-4.644;2023-05-27T07:43:59;102774.06;;;16.90;63.58
64853;BME280;56050;55.558;-4.644;2023-05-27T07:46:25;102776.03;;;16.96;63.22
64853;BME280;56050;55.558;-4.644;2023-05-27T07:48:50;102773.38;;;17.03;63.15
64853;BME280;56050;55.558;-4.644;2023-05-27T07:51:16;102772.22;;;17.08;63.31
64853;BME280;56050;55.558;-4.644;2023-05-27T07:53:43;102776.50;;;17.09;62.82
64853;BME280;56050;55.558;-4.644;2023-05-27T07:56:08;102768.34;;;17.13;62.86
64853;BME280;56050;55.558;-4.644;2023-05-27T07:58:33;102771.09;;;17.16;62.84
64853;BME280;56050;55.558;-4.644;2023-05-27T08:00:59;102769.16;;;17.17;63.04
64853;BME280;56050;55.558;-4.644;2023-05-27T08:03:24;102767.56;;;17.16;62.83
64853;BME280;56050;55.558;-4.644;2023-05-27T08:05:50;102765.66;;;17.16;62.88
64853;BME280;56050;55.558;-4.644;2023-05-27T08:08:15;102768.00;;;17.18;62.91
64853;BME280;56050;55.558;-4.644;2023-05-27T08:10:41;102766.44;;;17.17;62.84
64853;BME280;56050;55.558;-4.644;2023-05-27T08:13:06;102757.06;;;17.14;62.68
64853;BME280;56050;55.558;-4.644;2023-05-27T08:15:31;102755.13;;;17.11;62.77
64853;BME280;56050;55.558;-4.644;2023-05-27T08:17:57;102761.34;;;17.12;62.86
64853;BME280;56050;55.558;-4.644;2023-05-27T08:20:23;102759.78;;;17.11;62.89
64853;BME280;56050;55.558;-4.644;2023-05-27T08:22:48;102753.53;;;17.10;62.90
64853;BME280;56050;55.558;-4.644;2023-05-27T08:25:14;102759.41;;;17.12;62.84
64853;BME280;56050;55.558;-4.644;2023-05-27T08:27:50;102746.94;;;17.11;62.56
64853;BME280;56050;55.558;-4.644;2023-05-27T08:30:17;102755.47;;;17.10;62.66
64853;BME280;56050;55.558;-4.644;2023-05-27T08:32:43;102751.56;;;17.07;62.69
64853;BME280;56050;55.558;-4.644;2023-05-27T08:35:10;102752.72;;;17.02;62.79
64853;BME280;56050;55.558;-4.644;2023-05-27T08:37:36;102754.66;;;17.02;62.70
64853;BME280;56050;55.558;-4.644;2023-05-27T08:40:02;102757.38;;;17.02;62.71
64853;BME280;56050;55.558;-4.644;2023-05-27T08:42:30;102764.81;;;17.05;62.68
64853;BME280;56050;55.558;-4.644;2023-05-27T08:44:56;102753.91;;;17.05;62.44
64853;BME280;56050;55.558;-4.644;2023-05-27T08:47:21;102759.75;;;17.07;62.42
64853;BME280;56050;55.558;-4.644;2023-05-27T08:49:47;102757.81;;;17.08;62.64
64853;BME280;56050;55.558;-4.644;2023-05-27T08:52:17;102765.56;;;17.02;62.66
64853;BME280;56050;55.558;-4.644;2023-05-27T08:54:44;102762.81;;;16.98;62.86
64853;BME280;56050;55.558;-4.644;2023-05-27T08:57:12;102763.22;;;17.00;62.72
64853;BME280;56050;55.558;-4.644;2023-05-27T08:59:39;102764.44;;;17.10;62.77
64853;BME280;56050;55.558;-4.644;2023-05-27T09:02:12;102761.38;;;17.19;62.73
64853;BME280;56050;55.558;-4.644;2023-05-27T09:04:41;102757.88;;;17.18;62.98
64853;BME280;56050;55.558;-4.644;2023-05-27T09:07:07;102763.72;;;17.24;62.96
64853;BME280;56050;55.558;-4.644;2023-05-27T09:09:33;102757.16;;;17.28;62.63
64853;BME280;56050;55.558;-4.644;2023-05-27T09:12:01;102754.41;;;17.25;62.54
64853;BME280;56050;55.558;-4.644;2023-05-27T09:14:27;102760.59;;;17.18;62.63
64853;BME280;56050;55.558;-4.644;2023-05-27T09:16:53;102759.44;;;17.19;62.61
64853;BME280;56050;55.558;-4.644;2023-05-27T09:19:19;102759.47;;;17.23;62.94
64853;BME280;56050;55.558;-4.644;2023-05-27T09:21:45;102762.94;;;17.23;62.66
64853;BME280;56050;55.558;-4.644;2023-05-27T09:24:11;102759.81;;;17.21;62.63
64853;BME280;56050;55.558;-4.644;2023-05-27T09:26:36;102758.28;;;17.20;62.75
64853;BME280;56050;55.558;-4.644;2023-05-27T09:29:06;102755.91;;;17.19;62.87
64853;BME280;56050;55.558;-4.644;2023-05-27T09:31:38;102741.94;;;17.20;62.98
64853;BME280;56050;55.558;-4.644;2023-05-27T09:34:17;102739.63;;;17.29;62.87
64853;BME280;56050;55.558;-4.644;2023-05-27T09:36:47;102741.22;;;17.37;62.85
64853;BME280;56050;55.558;-4.644;2023-05-27T09:39:13;102727.59;;;17.41;62.46
64853;BME280;56050;55.558;-4.644;2023-05-27T09:41:40;102728.78;;;17.36;62.33
64853;BME280;56050;55.558;-4.644;2023-05-27T09:44:06;102724.47;;;17.35;62.15
64853;BME280;56050;55.558;-4.644;2023-05-27T09:46:32;102726.03;;;17.40;62.04
64853;BME280;56050;55.558;-4.644;2023-05-27T09:48:59;102722.97;;;17.45;61.98
64853;BME280;56050;55.558;-4.644;2023-05-27T09:51:29;102716.38;;;17.56;62.05
64853;BME280;56050;55.558;-4.644;2023-05-27T09:53:55;102712.16;;;17.66;61.65
64853;BME280;56050;55.558;-4.644;2023-05-27T09:56:29;102708.25;;;17.71;61.29
64853;BME280;56050;55.558;-4.644;2023-05-27T09:58:57;102711.41;;;17.80;60.42
64853;BME280;56050;55.558;-4.644;2023-05-27T10:01:28;102704.00;;;17.91;61.01
64853;BME280;56050;55.558;-4.644;2023-05-27T10:03:55;102708.69;;;18.01;60.64
64853;BME280;56050;55.558;-4.644;2023-05-27T10:06:22;102707.16;;;18.14;60.30
64853;BME280;56050;55.558;-4.644;2023-05-27T10:08:50;102710.25;;;18.23;59.62
64853;BME280;56050;55.558;-4.644;2023-05-27T10:11:18;102709.88;;;18.25;59.08
64853;BME280;56050;55.558;-4.644;2023-05-27T10:13:44;102718.44;;;18.23;58.64
64853;BME280;56050;55.558;-4.644;2023-05-27T10:16:19;102715.72;;;18.23;58.80
64853;BME280;56050;55.558;-4.644;2023-05-27T10:18:45;102707.13;;;18.32;58.86
64853;BME280;56050;55.558;-4.644;2023-05-27T10:21:21;102713.00;;;18.34;58.33
64853;BME280;56050;55.558;-4.644;2023-05-27T10:24:00;102704.41;;;18.32;58.36
64853;BME280;56050;55.558;-4.644;2023-05-27T10:26:40;102704.78;;;18.23;57.92
64853;BME280;56050;55.558;-4.644;2023-05-27T10:29:11;102704.81;;;18.16;58.00
64853;BME280;56050;55.558;-4.644;2023-05-27T10:31:57;102700.91;;;18.10;58.10
64853;BME280;56050;55.558;-4.644;2023-05-27T10:34:34;102705.19;;;18.07;57.66
64853;BME280;56050;55.558;-4.644;2023-05-27T10:36:59;102695.81;;;17.98;57.48
64853;BME280;56050;55.558;-4.644;2023-05-27T10:39:28;102690.78;;;17.89;57.96
64853;BME280;56050;55.558;-4.644;2023-05-27T10:41:55;102682.59;;;17.86;58.14
64853;BME280;56050;55.558;-4.644;2023-05-27T10:44:31;102684.13;;;17.87;57.99
64853;BME280;56050;55.558;-4.644;2023-05-27T10:49:35;102680.63;;;17.90;58.18
64853;BME280;56050;55.558;-4.644;2023-05-27T10:52:11;102679.06;;;17.96;58.19
64853;BME280;56050;55.558;-4.644;2023-05-27T10:54:42;102674.00;;;18.01;58.11
64853;BME280;56050;55.558;-4.644;2023-05-27T10:57:08;102679.47;;;18.12;57.83
64853;BME280;56050;55.558;-4.644;2023-05-27T11:02:15;102671.31;;;18.08;57.20
64853;BME280;56050;55.558;-4.644;2023-05-27T11:04:41;102664.28;;;18.11;57.53
64853;BME280;56050;55.558;-4.644;2023-05-27T11:07:06;102662.72;;;18.28;57.37
64853;BME280;56050;55.558;-4.644;2023-05-27T11:09:44;102657.22;;;18.45;57.07
64853;BME280;56050;55.558;-4.644;2023-05-27T11:12:18;102652.53;;;18.60;57.17
64853;BME280;56050;55.558;-4.644;2023-05-27T11:14:45;102656.03;;;18.71;56.78
64853;BME280;56050;55.558;-4.644;2023-05-27T11:17:14;102656.78;;;18.78;56.60
64853;BME280;56050;55.558;-4.644;2023-05-27T11:19:40;102659.84;;;18.91;56.38
64853;BME280;56050;55.558;-4.644;2023-05-27T11:22:07;102652.41;;;18.99;56.33
64853;BME280;56050;55.558;-4.644;2023-05-27T11:24:34;102649.25;;;19.04;56.36
64853;BME280;56050;55.558;-4.644;2023-05-27T11:27:10;102637.97;;;19.02;56.08
64853;BME280;56050;55.558;-4.644;2023-05-27T11:29:37;102641.06;;;19.04;56.02
64853;BME280;56050;55.558;-4.644;2023-05-27T11:32:04;102640.69;;;19.05;55.86
64853;BME280;56050;55.558;-4.644;2023-05-27T11:34:30;102647.69;;;19.03;55.87
64853;BME280;56050;55.558;-4.644;2023-05-27T11:37:01;102637.59;;;18.96;56.06
64853;BME280;56050;55.558;-4.644;2023-05-27T11:39:29;102640.34;;;18.93;56.03
64853;BME280;56050;55.558;-4.644;2023-05-27T11:41:55;102637.59;;;18.96;56.02
64853;BME280;56050;55.558;-4.644;2023-05-27T11:44:24;102637.97;;;19.02;55.78
64853;BME280;56050;55.558;-4.644;2023-05-27T11:46:52;102639.50;;;19.03;55.68
64853;BME280;56050;55.558;-4.644;2023-05-27T11:49:18;102638.38;;;18.97;55.49
64853;BME280;56050;55.558;-4.644;2023-05-27T11:51:46;102636.44;;;18.87;54.97
64853;BME280;56050;55.558;-4.644;2023-05-27T11:54:28;102635.34;;;18.73;55.51
64853;BME280;56050;55.558;-4.644;2023-05-27T11:56:55;102629.09;;;18.76;55.69
64853;BME280;56050;55.558;-4.644;2023-05-27T11:59:23;102631.00;;;18.87;55.52
64853;BME280;56050;55.558;-4.644;2023-05-27T12:01:49;102624.31;;;19.02;55.80
64853;BME280;56050;55.558;-4.644;2023-05-27T12:04:15;102629.28;;;19.21;55.59
64853;BME280;56050;55.558;-4.644;2023-05-27T12:06:42;102623.72;;;19.35;54.98
64853;BME280;56050;55.558;-4.644;2023-05-27T12:09:08;102635.84;;;19.41;54.82
64853;BME280;56050;55.558;-4.644;2023-05-27T12:11:35;102636.19;;;19.47;54.75
64853;BME280;56050;55.558;-4.644;2023-05-27T12:14:01;102650.22;;;19.52;54.64
64853;BME280;56050;55.558;-4.644;2023-05-27T12:16:26;102640.81;;;19.53;54.58
64853;BME280;56050;55.558;-4.644;2023-05-27T12:18:52;102639.28;;;19.49;54.24
64853;BME280;56050;55.558;-4.644;2023-05-27T12:21:18;102651.03;;;19.42;54.22
64853;BME280;56050;55.558;-4.644;2023-05-27T12:23:44;102646.75;;;19.34;54.36
64853;BME280;56050;55.558;-4.644;2023-05-27T12:26:13;102637.41;;;19.35;54.67
64853;BME280;56050;55.558;-4.644;2023-05-27T12:28:40;102633.47;;;19.40;54.63
64853;BME280;56050;55.558;-4.644;2023-05-27T12:31:05;102629.16;;;19.42;54.38
64853;BME280;56050;55.558;-4.644;2023-05-27T12:33:31;102634.25;;;19.44;54.27
64853;BME280;56050;55.558;-4.644;2023-05-27T12:35:57;102629.94;;;19.46;54.33
64853;BME280;56050;55.558;-4.644;2023-05-27T12:38:23;102638.13;;;19.46;54.53
64853;BME280;56050;55.558;-4.644;2023-05-27T12:40:49;102632.25;;;19.48;54.50
64853;BME280;56050;55.558;-4.644;2023-05-27T12:43:15;102625.63;;;19.45;54.70